createdAt,value
2023-04-27T00:00:13.357Z,73.72
2023-04-27T00:02:42.628Z,74.94
2023-04-27T00:05:11.652Z,74.76
2023-04-27T00:07:39.277Z,74.20
2023-04-27T00:10:07.898Z,72.80
2023-04-27T00:12:35.415Z,72.71
2023-04-27T00:15:02.920Z,73.67
2023-04-27T00:17:31.017Z,74.90
2023-04-27T00:20:00.568Z,76.49
2023-04-27T00:22:28.051Z,76.61
2023-04-27T00:24:55.497Z,75.64
2023-04-27T00:27:22.986Z,75.21
2023-04-27T00:29:50.446Z,75.11
2023-04-27T00:32:17.912Z,75.77
2023-04-27T00:34:45.386Z,76.86
2023-04-27T00:37:14.208Z,77.02
2023-04-27T00:39:41.694Z,76.66
2023-04-27T00:42:11.453Z,76.50
2023-04-27T00:44:39.917Z,76.25
2023-04-27T00:47:07.704Z,77.20
2023-04-27T00:49:35.193Z,79.71
2023-04-27T00:52:03.347Z,80.10
2023-04-27T00:54:32.645Z,80.37
2023-04-27T00:57:00.220Z,81.11
2023-04-27T00:59:27.761Z,83.09
2023-04-27T01:01:56.031Z,85.34
2023-04-27T01:04:23.780Z,86.10
2023-04-27T01:06:51.692Z,85.13
2023-04-27T01:09:20.126Z,81.89
2023-04-27T01:11:48.964Z,80.44
2023-04-27T01:14:17.181Z,80.46
2023-04-27T01:16:46.246Z,79.26
2023-04-27T01:19:14.048Z,79.04
2023-04-27T01:21:41.693Z,78.64
2023-04-27T01:24:11.213Z,79.52
2023-04-27T01:26:38.795Z,79.64
2023-04-27T01:29:06.325Z,80.08
2023-04-27T01:31:33.934Z,80.25
2023-04-27T01:34:01.432Z,80.13
2023-04-27T01:36:28.919Z,77.94
2023-04-27T01:38:56.594Z,78.09
2023-04-27T01:41:25.441Z,77.43
2023-04-27T01:43:52.904Z,77.13
2023-04-27T01:46:20.605Z,77.26
2023-04-27T01:48:48.088Z,77.93
2023-04-27T01:51:15.967Z,77.99
2023-04-27T01:53:43.736Z,78.30
2023-04-27T01:56:11.222Z,77.91
2023-04-27T01:58:40.039Z,77.63
2023-04-27T02:01:07.486Z,77.43
2023-04-27T02:03:35.128Z,78.09
2023-04-27T02:06:02.810Z,77.84
2023-04-27T02:08:30.278Z,78.93
2023-04-27T02:10:57.730Z,80.80
2023-04-27T02:13:25.261Z,82.04
2023-04-27T02:15:55.943Z,82.09
2023-04-27T02:18:24.187Z,80.96
2023-04-27T02:20:51.670Z,80.31
2023-04-27T02:23:19.115Z,79.48
2023-04-27T02:25:46.984Z,79.40
2023-04-27T02:28:14.704Z,79.66
2023-04-27T02:30:42.590Z,80.05
2023-04-27T02:33:11.402Z,80.03
2023-04-27T02:35:38.862Z,79.58
2023-04-27T02:38:06.688Z,78.71
2023-04-27T02:40:34.493Z,78.39
2023-04-27T02:43:01.949Z,77.87
2023-04-27T02:45:29.659Z,77.74
2023-04-27T02:47:57.225Z,77.48
2023-04-27T02:50:26.150Z,79.36
2023-04-27T02:52:53.756Z,78.14
2023-04-27T02:55:21.460Z,77.46
2023-04-27T02:57:48.929Z,81.32
2023-04-27T03:00:17.101Z,81.50
2023-04-27T03:02:44.804Z,80.63
2023-04-27T03:05:12.874Z,79.15
2023-04-27T03:07:42.053Z,78.19
2023-04-27T03:10:10.222Z,78.59
2023-04-27T03:12:37.866Z,78.40
2023-04-27T03:15:05.924Z,78.97
2023-04-27T03:17:33.420Z,79.42
2023-04-27T03:20:01.222Z,80.27
2023-04-27T03:22:29.176Z,86.99
2023-04-27T03:24:57.968Z,84.87
2023-04-27T03:27:25.615Z,83.49
2023-04-27T03:29:53.729Z,83.92
2023-04-27T03:32:21.298Z,84.08
2023-04-27T03:34:48.847Z,83.52
2023-04-27T03:37:16.522Z,84.29
2023-04-27T03:39:44.918Z,86.05
2023-04-27T03:42:13.809Z,86.14
2023-04-27T03:44:41.289Z,86.54
2023-04-27T03:47:09.634Z,87.23
2023-04-27T03:49:37.291Z,87.60
2023-04-27T03:52:05.404Z,88.53
2023-04-27T03:54:33.037Z,88.10
2023-04-27T03:57:02.297Z,87.92
2023-04-27T03:59:31.298Z,89.08
2023-04-27T04:02:00.930Z,90.23
2023-04-27T04:04:29.093Z,89.94
2023-04-27T04:06:56.693Z,89.24
2023-04-27T04:09:24.237Z,90.33
2023-04-27T04:11:52.640Z,89.81
2023-04-27T04:14:20.106Z,90.49
2023-04-27T04:16:49.010Z,91.60
2023-04-27T04:19:16.723Z,93.78
2023-04-27T04:21:44.348Z,92.39
2023-04-27T04:24:11.828Z,90.28
2023-04-27T04:26:39.615Z,91.95
2023-04-27T04:29:08.373Z,90.22
2023-04-27T04:31:38.060Z,87.72
2023-04-27T04:34:06.897Z,85.55
2023-04-27T04:36:34.368Z,84.80
2023-04-27T04:39:01.829Z,85.25
2023-04-27T04:41:29.307Z,83.94
2023-04-27T04:43:56.774Z,83.04
2023-04-27T04:46:24.720Z,81.56
2023-04-27T04:48:54.590Z,79.99
2023-04-27T04:51:23.693Z,78.49
2023-04-27T04:53:51.162Z,75.59
2023-04-27T04:56:18.669Z,74.14
2023-04-27T04:58:46.242Z,74.24
2023-04-27T05:01:13.777Z,73.79
2023-04-27T05:03:41.404Z,72.59
2023-04-27T05:06:09.164Z,72.83
2023-04-27T05:08:37.958Z,71.08
2023-04-27T05:11:05.887Z,70.25
2023-04-27T05:13:33.338Z,72.47
2023-04-27T05:16:00.838Z,70.31
2023-04-27T05:18:28.321Z,68.45
2023-04-27T05:20:56.066Z,66.50
2023-04-27T05:23:23.595Z,64.30
2023-04-27T05:25:52.631Z,66.46
2023-04-27T05:28:20.735Z,65.36
2023-04-27T05:30:48.179Z,68.41
2023-04-27T05:33:16.026Z,69.70
2023-04-27T05:35:43.497Z,70.11
2023-04-27T05:38:10.984Z,66.07
2023-04-27T05:40:38.506Z,68.91
2023-04-27T05:43:07.313Z,65.69
2023-04-27T05:45:34.859Z,62.66
2023-04-27T05:48:02.398Z,61.58
2023-04-27T05:50:29.843Z,59.64
2023-04-27T05:52:57.271Z,58.25
2023-04-27T05:55:24.716Z,58.56
2023-04-27T05:58:04.610Z,57.06
2023-04-27T06:00:36.511Z,57.39
2023-04-27T06:03:04.211Z,55.98
2023-04-27T06:05:31.874Z,55.64
2023-04-27T06:07:59.355Z,54.48
2023-04-27T06:10:26.845Z,53.13
2023-04-27T06:12:54.354Z,56.21
2023-04-27T06:15:24.453Z,54.76
2023-04-27T06:17:54.159Z,53.18
2023-04-27T06:20:23.767Z,53.42
2023-04-27T06:22:51.861Z,52.73
2023-04-27T06:25:20.009Z,54.65
2023-04-27T06:27:48.028Z,54.78
2023-04-27T06:30:16.043Z,55.34
2023-04-27T06:32:44.066Z,55.68
2023-04-27T06:35:13.211Z,55.75
2023-04-27T06:37:40.658Z,55.41
2023-04-27T06:40:09.395Z,52.96
2023-04-27T06:42:36.872Z,52.71
2023-04-27T06:45:05.698Z,51.59
2023-04-27T06:47:33.153Z,51.09
2023-04-27T06:50:00.637Z,50.19
2023-04-27T06:52:29.489Z,48.91
2023-04-27T06:54:57.407Z,48.17
2023-04-27T06:57:24.867Z,46.72
2023-04-27T06:59:52.644Z,44.67
2023-04-27T07:02:20.386Z,43.66
2023-04-27T07:04:48.016Z,43.11
2023-04-27T07:07:15.497Z,42.81
2023-04-27T07:09:44.287Z,43.46
2023-04-27T07:12:11.930Z,41.80
2023-04-27T07:14:39.402Z,41.50
2023-04-27T07:17:06.907Z,41.09
2023-04-27T07:19:34.380Z,41.06
2023-04-27T07:22:01.886Z,39.47
2023-04-27T07:24:29.321Z,39.14
2023-04-27T07:26:59.381Z,38.72
2023-04-27T07:29:28.315Z,39.88
2023-04-27T07:31:56.689Z,38.91
2023-04-27T07:34:24.874Z,39.12
2023-04-27T07:36:54.071Z,39.46
2023-04-27T07:39:21.624Z,38.93
2023-04-27T07:41:50.002Z,37.81
2023-04-27T07:44:19.752Z,37.10
2023-04-27T07:46:48.859Z,35.88
2023-04-27T07:49:16.407Z,36.77
2023-04-27T07:51:43.917Z,35.97
2023-04-27T07:54:11.384Z,35.40
2023-04-27T07:56:41.670Z,34.98
2023-04-27T07:59:09.133Z,34.75
2023-04-27T08:01:38.016Z,34.95
2023-04-27T08:04:06.272Z,34.12
2023-04-27T08:06:34.622Z,33.45
2023-04-27T08:09:04.093Z,34.70
2023-04-27T08:11:31.813Z,36.09
2023-04-27T08:13:59.262Z,35.33
2023-04-27T08:16:26.859Z,34.79
2023-04-27T08:18:55.687Z,35.94
2023-04-27T08:21:23.181Z,35.70
2023-04-27T08:23:50.814Z,36.06
2023-04-27T08:26:18.327Z,34.40
2023-04-27T08:28:45.822Z,32.91
2023-04-27T08:31:13.353Z,33.31
2023-04-27T08:33:40.832Z,34.48
2023-04-27T08:36:10.389Z,32.91
2023-04-27T08:38:37.860Z,31.39
2023-04-27T08:41:20.383Z,31.84
2023-04-27T08:43:49.825Z,31.00
2023-04-27T08:46:20.142Z,30.20
2023-04-27T08:48:48.072Z,29.85
2023-04-27T08:51:17.723Z,30.81
2023-04-27T08:53:51.533Z,30.48
2023-04-27T08:56:19.310Z,30.41
2023-04-27T08:58:47.047Z,28.76
2023-04-27T09:01:14.542Z,28.39
2023-04-27T09:03:42.158Z,28.24
2023-04-27T09:06:10.066Z,27.12
2023-04-27T09:08:46.846Z,26.74
2023-04-27T09:11:15.068Z,26.76
2023-04-27T09:13:45.519Z,26.78
2023-04-27T09:16:14.145Z,26.00
2023-04-27T09:18:44.392Z,27.14
2023-04-27T09:21:11.853Z,27.41
2023-04-27T09:23:40.662Z,26.65
2023-04-27T09:26:09.558Z,26.63
2023-04-27T09:28:39.612Z,28.08
2023-04-27T09:31:09.076Z,25.96
2023-04-27T09:33:37.358Z,26.72
2023-04-27T09:36:07.023Z,26.34
2023-04-27T09:38:34.900Z,26.36
2023-04-27T09:41:03.386Z,26.41
2023-04-27T09:43:32.456Z,26.16
2023-04-27T09:46:00.052Z,29.22
2023-04-27T09:48:27.628Z,27.20
2023-04-27T09:50:55.186Z,25.48
2023-04-27T09:53:27.580Z,25.14
2023-04-27T09:56:09.926Z,24.46
2023-04-27T09:58:59.856Z,24.27
2023-04-27T10:01:36.525Z,24.08
2023-04-27T10:04:20.375Z,24.52
2023-04-27T10:07:00.644Z,23.60
2023-04-27T10:09:31.600Z,24.80
2023-04-27T10:12:15.446Z,25.97
2023-04-27T10:14:51.898Z,25.96
2023-04-27T10:17:20.441Z,26.52
2023-04-27T10:19:57.986Z,26.88
2023-04-27T10:22:39.110Z,27.62
2023-04-27T10:25:16.478Z,27.71
2023-04-27T10:27:44.042Z,27.46
2023-04-27T10:30:14.748Z,26.59
2023-04-27T10:32:52.489Z,27.46
2023-04-27T10:35:21.507Z,27.67
2023-04-27T10:37:49.238Z,26.94
2023-04-27T10:40:18.209Z,26.71
2023-04-27T10:42:46.327Z,25.44
2023-04-27T10:45:15.134Z,26.44
2023-04-27T10:47:45.079Z,27.21
2023-04-27T10:50:15.363Z,27.47
2023-04-27T10:52:43.202Z,28.21
2023-04-27T10:55:15.755Z,28.01
2023-04-27T10:57:47.951Z,27.92
2023-04-27T11:00:23.881Z,26.48
2023-04-27T11:02:51.910Z,25.42
2023-04-27T11:05:20.637Z,25.08
2023-04-27T11:07:48.488Z,26.21
2023-04-27T11:10:17.421Z,28.24
2023-04-27T11:12:44.934Z,30.55
2023-04-27T11:15:14.059Z,32.24
2023-04-27T11:17:43.013Z,30.07
2023-04-27T11:20:10.890Z,28.34
2023-04-27T11:22:46.519Z,29.17
2023-04-27T11:25:14.041Z,28.37
2023-04-27T11:27:42.569Z,28.57
2023-04-27T11:30:21.173Z,29.43
2023-04-27T11:32:50.658Z,31.76
2023-04-27T11:35:19.167Z,28.68
2023-04-27T11:37:58.042Z,27.39
2023-04-27T11:40:25.501Z,28.59
2023-04-27T11:42:58.098Z,27.73
2023-04-27T11:45:27.579Z,26.62
2023-04-27T11:47:58.893Z,27.46
2023-04-27T11:50:26.714Z,26.11
2023-04-27T11:52:54.276Z,26.81
2023-04-27T11:55:22.898Z,25.92
2023-04-27T11:57:50.403Z,29.72
2023-04-27T12:00:19.033Z,28.45
2023-04-27T12:02:46.605Z,27.61
2023-04-27T12:05:16.418Z,29.88
2023-04-27T12:07:44.122Z,28.11
2023-04-27T12:10:12.159Z,26.93
2023-04-27T12:12:39.712Z,25.75
2023-04-27T12:15:09.102Z,24.85
2023-04-27T12:17:37.188Z,24.23
2023-04-27T12:20:05.586Z,26.85
2023-04-27T12:22:34.411Z,29.88
2023-04-27T12:25:01.875Z,28.19
2023-04-27T12:27:29.331Z,28.63
2023-04-27T12:29:59.332Z,26.95
2023-04-27T12:32:27.845Z,26.66
2023-04-27T12:34:55.459Z,29.80
2023-04-27T12:37:24.869Z,31.60
2023-04-27T12:39:55.153Z,33.90
2023-04-27T12:42:24.115Z,31.90
2023-04-27T12:44:52.023Z,28.21
2023-04-27T12:47:40.610Z,28.38
2023-04-27T12:50:09.484Z,27.33
2023-04-27T12:52:37.009Z,27.78
2023-04-27T12:55:11.049Z,25.33
2023-04-27T12:57:45.695Z,29.72
2023-04-27T13:00:14.173Z,35.57
2023-04-27T13:02:43.170Z,34.27
2023-04-27T13:05:11.776Z,34.27
2023-04-27T13:07:39.215Z,31.61
2023-04-27T13:10:08.985Z,30.85
2023-04-27T13:12:36.481Z,32.43
2023-04-27T13:15:04.596Z,31.97
2023-04-27T13:17:32.126Z,34.50
2023-04-27T13:19:59.644Z,33.71
2023-04-27T13:22:27.126Z,33.64
2023-04-27T13:24:54.573Z,33.46
2023-04-27T13:27:25.186Z,36.12
2023-04-27T13:29:52.720Z,34.71
2023-04-27T13:32:20.262Z,31.84
2023-04-27T13:34:47.781Z,28.35
2023-04-27T13:37:15.440Z,26.83
2023-04-27T13:39:42.896Z,27.87
2023-04-27T13:42:10.415Z,29.87
2023-04-27T13:44:39.215Z,32.22
2023-04-27T13:47:07.903Z,32.66
2023-04-27T13:49:35.936Z,29.68
2023-04-27T13:52:03.448Z,28.26
2023-04-27T13:54:31.029Z,28.69
2023-04-27T13:56:58.545Z,27.62
2023-04-27T13:59:26.001Z,31.14
2023-04-27T14:01:55.377Z,32.97
2023-04-27T14:04:22.986Z,34.32
2023-04-27T14:06:50.491Z,31.81
2023-04-27T14:09:17.939Z,29.04
2023-04-27T14:11:55.762Z,29.32
2023-04-27T14:14:24.428Z,29.47
2023-04-27T14:16:52.032Z,30.92
2023-04-27T14:19:21.454Z,30.61
2023-04-27T14:21:50.648Z,29.16
2023-04-27T14:24:18.168Z,29.85
2023-04-27T14:26:47.554Z,26.72
2023-04-27T14:29:15.569Z,31.05
2023-04-27T14:31:43.400Z,30.60
2023-04-27T14:34:11.202Z,28.43
2023-04-27T14:36:40.122Z,27.29
2023-04-27T14:39:09.334Z,26.80
2023-04-27T14:41:37.474Z,26.32
2023-04-27T14:44:07.349Z,26.00
2023-04-27T14:46:35.397Z,29.94
2023-04-27T14:49:03.010Z,31.98
2023-04-27T14:51:32.342Z,33.95
2023-04-27T14:54:02.227Z,32.76
2023-04-27T14:56:29.680Z,34.69
2023-04-27T14:58:57.177Z,37.04
2023-04-27T15:01:24.642Z,36.01
2023-04-27T15:03:54.211Z,36.28
2023-04-27T15:06:22.226Z,34.84
2023-04-27T15:08:49.682Z,33.26
2023-04-27T15:11:18.532Z,33.80
2023-04-27T15:13:46.723Z,31.55
2023-04-27T15:16:14.222Z,30.60
2023-04-27T15:18:42.176Z,30.97
2023-04-27T15:21:09.754Z,31.88
2023-04-27T15:23:37.329Z,34.98
2023-04-27T15:26:05.179Z,36.80
2023-04-27T15:28:34.492Z,32.87
2023-04-27T15:31:02.029Z,32.22
2023-04-27T15:33:29.513Z,34.24
2023-04-27T15:35:58.917Z,35.45
2023-04-27T15:38:26.473Z,30.78
2023-04-27T15:40:53.948Z,31.30
2023-04-27T15:43:22.072Z,35.23
2023-04-27T15:45:51.515Z,36.08
2023-04-27T15:48:19.003Z,34.48
2023-04-27T15:50:48.256Z,34.85
2023-04-27T15:53:15.696Z,33.26
2023-04-27T15:55:43.239Z,32.16
2023-04-27T15:58:10.866Z,32.01
2023-04-27T16:00:38.486Z,31.38
2023-04-27T16:03:10.802Z,31.13
2023-04-27T16:05:38.674Z,31.26
2023-04-27T16:08:06.450Z,31.76
2023-04-27T16:10:34.027Z,32.34
2023-04-27T16:13:01.502Z,32.67
2023-04-27T16:15:28.979Z,34.25
2023-04-27T16:17:56.445Z,34.85
2023-04-27T16:20:28.826Z,34.60
2023-04-27T16:22:56.308Z,33.94
2023-04-27T16:25:23.772Z,33.50
2023-04-27T16:27:51.442Z,34.73
2023-04-27T16:30:19.319Z,33.45
2023-04-27T16:32:46.941Z,33.80
2023-04-27T16:35:14.410Z,34.04
2023-04-27T16:37:43.206Z,33.74
2023-04-27T16:40:11.555Z,34.71
2023-04-27T16:42:39.006Z,33.97
2023-04-27T16:45:09.872Z,33.29
2023-04-27T16:47:38.388Z,34.39
2023-04-27T16:50:06.598Z,33.90
2023-04-27T16:52:34.045Z,34.23
2023-04-27T16:55:02.864Z,33.71
2023-04-27T16:57:30.456Z,34.06
2023-04-27T16:59:57.970Z,32.84
2023-04-27T17:02:26.103Z,33.53
2023-04-27T17:04:53.792Z,33.39
2023-04-27T17:07:21.328Z,32.64
2023-04-27T17:09:48.847Z,33.15
2023-04-27T17:12:17.636Z,33.44
2023-04-27T17:14:45.102Z,35.28
2023-04-27T17:17:12.654Z,34.92
2023-04-27T17:19:40.384Z,34.93
2023-04-27T17:22:10.663Z,34.99
2023-04-27T17:24:38.116Z,35.29
2023-04-27T17:27:05.573Z,34.50
2023-04-27T17:29:34.389Z,35.32
2023-04-27T17:32:01.831Z,35.24
2023-04-27T17:34:29.302Z,35.82
2023-04-27T17:36:56.783Z,35.29
2023-04-27T17:39:25.138Z,34.96
2023-04-27T17:41:52.727Z,36.76
2023-04-27T17:44:20.213Z,37.14
2023-04-27T17:46:50.169Z,37.53
2023-04-27T17:49:19.118Z,38.99
2023-04-27T17:51:47.441Z,41.31
2023-04-27T17:54:15.036Z,42.68
2023-04-27T17:56:42.769Z,42.48
2023-04-27T17:59:10.285Z,42.04
2023-04-27T18:01:37.778Z,41.00
2023-04-27T18:04:07.119Z,40.36
2023-04-27T18:06:34.822Z,40.68
2023-04-27T18:09:02.312Z,40.64
2023-04-27T18:11:30.526Z,40.69
2023-04-27T18:13:58.162Z,40.88
2023-04-27T18:16:25.979Z,41.86
2023-04-27T18:18:53.499Z,41.61
2023-04-27T18:21:22.349Z,42.06
2023-04-27T18:23:49.790Z,41.89
2023-04-27T18:26:17.433Z,41.88
2023-04-27T18:28:44.892Z,42.19
2023-04-27T18:31:15.706Z,43.96
2023-04-27T18:33:43.829Z,43.76
2023-04-27T18:36:11.426Z,43.44
2023-04-27T18:38:40.515Z,43.70
2023-04-27T18:41:08.276Z,43.55
2023-04-27T18:43:36.860Z,43.83
2023-04-27T18:46:04.841Z,44.33
2023-04-27T18:48:32.532Z,45.18
2023-04-27T18:51:00.264Z,46.16
2023-04-27T18:53:28.694Z,46.37
2023-04-27T18:55:57.554Z,47.59
2023-04-27T18:58:25.007Z,49.24
2023-04-27T19:00:52.521Z,50.69
2023-04-27T19:03:20.159Z,51.94
2023-04-27T19:05:47.804Z,52.67
2023-04-27T19:08:15.630Z,53.32
2023-04-27T19:10:43.108Z,52.57
2023-04-27T19:13:12.021Z,52.33
2023-04-27T19:15:40.101Z,51.92
2023-04-27T19:18:11.327Z,52.35
2023-04-27T19:20:39.245Z,52.90
2023-04-27T19:23:07.780Z,53.58
2023-04-27T19:25:35.393Z,55.41
2023-04-27T19:28:02.874Z,57.52
2023-04-27T19:30:31.752Z,59.27
2023-04-27T19:32:59.448Z,60.29
2023-04-27T19:35:27.448Z,60.73
2023-04-27T19:37:54.952Z,60.14
2023-04-27T19:40:22.492Z,60.23
2023-04-27T19:42:50.352Z,61.11
2023-04-27T19:45:18.024Z,61.47
2023-04-27T19:47:48.613Z,62.16
2023-04-27T19:50:16.913Z,62.97
2023-04-27T19:52:44.571Z,63.42
2023-04-27T19:55:12.134Z,63.98
2023-04-27T19:57:39.656Z,65.20
2023-04-27T20:00:10.026Z,65.94
2023-04-27T20:02:37.827Z,66.88
2023-04-27T20:05:07.763Z,66.87
2023-04-27T20:07:35.748Z,68.17
2023-04-27T20:10:04.377Z,70.42
2023-04-27T20:12:51.484Z,71.14
2023-04-27T20:15:19.352Z,71.23
2023-04-27T20:17:47.175Z,71.24
2023-04-27T20:20:16.011Z,71.56
2023-04-27T20:22:43.494Z,72.30
2023-04-27T20:25:13.990Z,73.35
2023-04-27T20:27:41.509Z,73.90
2023-04-27T20:30:10.018Z,75.12
2023-04-27T20:32:39.418Z,75.89
2023-04-27T20:35:10.285Z,76.40
2023-04-27T20:37:40.053Z,76.18
2023-04-27T20:40:11.909Z,76.35
2023-04-27T20:42:46.289Z,76.40
2023-04-27T20:45:13.786Z,76.45
2023-04-27T20:47:41.761Z,76.99
2023-04-27T20:50:09.676Z,77.09
2023-04-27T20:52:37.240Z,77.25
2023-04-27T20:55:06.698Z,77.33
2023-04-27T20:57:34.211Z,77.28
2023-04-27T21:00:01.864Z,77.17
2023-04-27T21:02:29.420Z,77.18
2023-04-27T21:04:57.007Z,76.76
2023-04-27T21:07:24.656Z,76.61
2023-04-27T21:09:52.384Z,76.29
2023-04-27T21:12:21.179Z,76.94
2023-04-27T21:14:48.617Z,77.27
2023-04-27T21:17:16.121Z,77.35
2023-04-27T21:19:43.608Z,77.03
2023-04-27T21:22:11.058Z,76.69
2023-04-27T21:24:38.557Z,76.44
2023-04-27T21:27:06.163Z,76.96
2023-04-27T21:29:36.501Z,78.18
2023-04-27T21:32:04.245Z,78.52
2023-04-27T21:34:31.721Z,78.98
2023-04-27T21:36:59.566Z,79.26
2023-04-27T21:39:27.057Z,79.99
2023-04-27T21:41:54.511Z,79.76
2023-04-27T21:44:21.989Z,79.67
2023-04-27T21:46:51.202Z,80.36
2023-04-27T21:49:19.026Z,80.58
2023-04-27T21:51:46.504Z,80.61
2023-04-27T21:54:14.265Z,80.15
2023-04-27T21:56:42.571Z,79.74
2023-04-27T21:59:10.031Z,80.61
2023-04-27T22:01:37.831Z,81.45
2023-04-27T22:04:06.972Z,82.65
2023-04-27T22:06:34.559Z,82.91
2023-04-27T22:09:02.487Z,83.66
2023-04-27T22:11:29.994Z,83.80
2023-04-27T22:13:57.507Z,83.56
2023-04-27T22:16:25.004Z,83.91
2023-04-27T22:18:53.809Z,83.57
2023-04-27T22:21:22.664Z,84.61
2023-04-27T22:23:50.402Z,84.36
2023-04-27T22:26:18.026Z,83.96
2023-04-27T22:28:45.527Z,83.70
2023-04-27T22:31:13.003Z,83.66
2023-04-27T22:33:40.700Z,83.32
2023-04-27T22:36:08.972Z,83.34
2023-04-27T22:38:37.884Z,83.52
2023-04-27T22:41:05.767Z,83.40
2023-04-27T22:43:33.234Z,83.28
2023-04-27T22:46:00.737Z,83.17
2023-04-27T22:48:28.304Z,83.26
2023-04-27T22:50:55.794Z,82.70
2023-04-27T22:53:23.273Z,82.57
2023-04-27T22:55:52.066Z,82.76
2023-04-27T22:58:19.508Z,83.17
2023-04-27T23:00:47.006Z,82.98
2023-04-27T23:03:14.635Z,82.65
2023-04-27T23:05:42.398Z,82.07
2023-04-27T23:08:09.877Z,81.90
2023-04-27T23:10:38.738Z,81.21
2023-04-27T23:13:11.277Z,80.54
2023-04-27T23:15:39.531Z,80.14
2023-04-27T23:18:07.142Z,80.08
2023-04-27T23:20:34.658Z,80.51
2023-04-27T23:23:02.207Z,80.49
2023-04-27T23:25:29.670Z,79.32
2023-04-27T23:27:57.131Z,77.91
2023-04-27T23:30:25.952Z,77.23
2023-04-27T23:32:53.519Z,76.67
2023-04-27T23:35:21.106Z,76.45
2023-04-27T23:37:48.666Z,75.13
2023-04-27T23:40:16.236Z,74.03
2023-04-27T23:42:43.726Z,74.23
2023-04-27T23:45:12.163Z,74.31
2023-04-27T23:47:41.404Z,73.88
2023-04-27T23:50:09.531Z,74.10
2023-04-27T23:52:37.168Z,74.83
2023-04-27T23:55:05.364Z,73.23
2023-04-27T23:57:32.850Z,72.71
